Manhattan Beach, Oregon
Current Conditions -  °F | °C
As of 9:15 AM on Friday 28 Nov 2014 (Local Time) from KTMK Reporting Station
Moderate Rain Moderate Rain  
Wind Chill: 55°   Ceiling: 1100
Heat Index: 55°   Visibility: 3mi
Dew Point: 55°   Wind: 14mph
Humidity: 100%   Direction: 200°SSW
Pressure: 29.61"   Gusts: 18mph
Location:  45.6132°N, 123.654°W
Report Text: KTMK 281715Z AUTO 20012G16KT 3SM RA BKN011 BKN019 OVC026 13/13 A2961 RMK AO2 P0007
Loading
Personal Weather Stations






























Interactive Weather Map New forecast layout! Learn more

10-Day Weather Forecast

Advertisements
Track Severe Weather on mobile